createdAt,value
2018-10-09T00:02:22.430Z,101715.25
2018-10-09T00:04:53.110Z,101704.23
2018-10-09T00:07:23.056Z,101700.33
2018-10-09T00:09:55.683Z,101695.70
2018-10-09T00:12:25.378Z,101701.30
2018-10-09T00:14:55.387Z,101700.56
2018-10-09T00:17:25.195Z,101691.73
2018-10-09T00:19:54.834Z,101694.61
2018-10-09T00:22:24.259Z,101703.73
2018-10-09T00:24:53.855Z,101701.56
2018-10-09T00:27:24.467Z,101698.25
2018-10-09T00:29:54.348Z,101690.03
2018-10-09T00:32:24.151Z,101690.39
2018-10-09T00:34:54.996Z,101683.09
2018-10-09T00:37:24.845Z,101676.30
2018-10-09T00:39:54.388Z,101672.19
2018-10-09T00:42:24.464Z,101669.14
2018-10-09T00:44:54.715Z,101676.77
2018-10-09T00:47:24.358Z,101679.71
2018-10-09T00:49:54.428Z,101673.98
2018-10-09T00:52:24.452Z,101672.48
2018-10-09T00:54:54.542Z,101674.08
2018-10-09T00:57:26.116Z,101682.69
2018-10-09T00:59:56.152Z,101685.34
2018-10-09T01:05:03.428Z,101701.32
2018-10-09T01:07:33.355Z,101693.78
2018-10-09T01:10:03.209Z,101685.73
2018-10-09T01:12:34.666Z,101682.16
2018-10-09T01:15:07.727Z,101685.72
2018-10-09T01:17:37.993Z,101686.69
2018-10-09T01:20:11.547Z,101691.55
2018-10-09T01:22:55.179Z,101689.97
2018-10-09T01:25:24.772Z,101686.36
2018-10-09T01:27:54.433Z,101690.38
2018-10-09T01:30:25.142Z,101692.53
2018-10-09T01:32:54.711Z,101700.03
2018-10-09T01:35:33.171Z,101693.86
2018-10-09T01:38:02.992Z,101694.08
2018-10-09T01:40:37.172Z,101696.12
2018-10-09T01:43:07.313Z,101700.14
2018-10-09T01:45:37.292Z,101693.39
2018-10-09T01:48:07.340Z,101695.69
2018-10-09T01:50:37.343Z,101696.62
2018-10-09T01:53:07.075Z,101695.41
2018-10-09T01:55:36.983Z,101705.98
2018-10-09T01:58:14.147Z,101702.84
2018-10-09T02:00:47.442Z,101706.97
2018-10-09T02:03:18.021Z,101720.28
2018-10-09T02:05:47.833Z,101718.81
2018-10-09T02:08:21.806Z,101715.65
2018-10-09T02:10:51.373Z,101711.91
2018-10-09T02:13:21.023Z,101702.45
2018-10-09T02:15:50.837Z,101696.16
2018-10-09T02:18:20.532Z,101691.25
2018-10-09T02:20:50.197Z,101690.99
2018-10-09T02:23:19.789Z,101681.84
2018-10-09T02:25:50.496Z,101686.58
2018-10-09T02:28:19.885Z,101684.81
2018-10-09T02:30:59.454Z,101688.84
2018-10-09T02:33:28.995Z,101690.42
2018-10-09T02:35:58.643Z,101694.44
2018-10-09T02:38:28.185Z,101695.66
2018-10-09T02:40:57.734Z,101688.23
2018-10-09T02:43:27.586Z,101688.59
2018-10-09T02:45:58.117Z,101679.85
2018-10-09T02:48:29.572Z,101678.03
2018-10-09T02:50:59.233Z,101673.62
2018-10-09T02:53:29.539Z,101665.14
2018-10-09T02:55:59.139Z,101660.41
2018-10-09T02:58:28.703Z,101661.60
2018-10-09T03:00:58.753Z,101663.76
2018-10-09T03:03:28.250Z,101652.76
2018-10-09T03:05:58.449Z,101652.25
2018-10-09T03:08:27.956Z,101651.47
2018-10-09T03:10:57.694Z,101645.03
2018-10-09T03:13:30.496Z,101642.37
2018-10-09T03:16:00.333Z,101637.66
2018-10-09T03:18:31.823Z,101630.48
2018-10-09T03:21:01.756Z,101624.73
2018-10-09T03:23:31.211Z,101627.16
2018-10-09T03:26:01.225Z,101618.73
2018-10-09T03:28:30.838Z,101618.66
2018-10-09T03:31:06.630Z,101622.86
2018-10-09T03:33:37.387Z,101616.34
2018-10-09T03:36:06.899Z,101615.05
2018-10-09T03:38:36.382Z,101559.25
2018-10-09T03:41:05.855Z,101611.55
2018-10-09T03:43:35.323Z,101612.60
2018-10-09T03:46:07.770Z,101608.60
2018-10-09T03:48:39.442Z,101614.34
2018-10-09T03:51:09.555Z,101615.12
2018-10-09T03:53:39.990Z,101607.62
2018-10-09T03:56:09.821Z,101611.03
2018-10-09T03:58:39.530Z,101611.61
2018-10-09T04:01:09.653Z,101611.00
2018-10-09T04:03:40.220Z,101612.22
2018-10-09T04:06:10.157Z,101613.68
2018-10-09T04:08:39.893Z,101622.92
2018-10-09T04:11:10.116Z,101613.61
2018-10-09T04:13:39.730Z,101616.16
2018-10-09T04:16:10.694Z,101616.14
2018-10-09T04:18:42.418Z,101622.42
2018-10-09T04:21:18.063Z,101627.41
2018-10-09T04:23:48.324Z,101626.56
2018-10-09T04:26:18.798Z,101633.66
2018-10-09T04:28:48.333Z,101633.56
2018-10-09T04:31:18.569Z,101627.48
2018-10-09T04:33:48.941Z,101630.72
2018-10-09T04:36:19.697Z,101624.94
2018-10-09T04:38:52.057Z,101624.58
2018-10-09T04:41:22.445Z,101624.58
2018-10-09T04:43:52.024Z,101619.63
2018-10-09T04:46:22.592Z,101616.02
2018-10-09T04:48:52.937Z,101616.75
2018-10-09T04:51:24.239Z,101618.44
2018-10-09T04:53:55.045Z,101617.84
2018-10-09T04:56:24.715Z,101620.88
2018-10-09T04:58:54.551Z,101624.39
2018-10-09T05:01:24.519Z,101620.86
2018-10-09T05:03:54.225Z,101620.25
2018-10-09T05:06:23.757Z,101627.27
2018-10-09T05:11:20.000Z,101505.73
2018-10-09T05:13:49.569Z,101622.77
2018-10-09T05:16:19.696Z,101629.44
2018-10-09T05:19:19.746Z,101634.19
2018-10-09T05:21:49.520Z,101631.55
2018-10-09T05:24:19.688Z,101631.30
2018-10-09T05:26:49.260Z,101637.13
2018-10-09T05:29:18.759Z,101632.90
2018-10-09T05:31:48.994Z,101631.30
2018-10-09T05:34:22.167Z,101634.22
2018-10-09T05:36:52.261Z,101628.75
2018-10-09T05:39:21.953Z,101636.02
2018-10-09T05:41:54.758Z,101638.32
2018-10-09T05:44:24.527Z,101652.02
2018-10-09T05:46:54.222Z,101653.73
2018-10-09T05:49:26.434Z,101653.37
2018-10-09T05:51:56.470Z,101653.00
2018-10-09T05:54:27.927Z,101653.84
2018-10-09T05:57:04.001Z,101651.63
2018-10-09T05:59:35.391Z,101664.61
2018-10-09T06:02:08.056Z,101653.59
2018-10-09T06:04:41.479Z,101663.84
2018-10-09T06:07:12.241Z,101665.66
2018-10-09T06:09:45.836Z,101668.92
2018-10-09T06:12:17.191Z,101670.54
2018-10-09T06:14:46.898Z,101677.91
2018-10-09T06:17:18.065Z,101680.83
2018-10-09T06:19:51.203Z,101685.77
2018-10-09T06:22:24.676Z,101686.95
2018-10-09T06:27:39.609Z,101696.43
2018-10-09T06:30:16.244Z,101697.96
2018-10-09T06:32:46.711Z,101700.55
2018-10-09T06:35:16.358Z,101696.29
2018-10-09T06:37:47.234Z,101699.77
2018-10-09T06:40:17.884Z,101701.84
2018-10-09T06:42:52.220Z,101701.52
2018-10-09T06:45:25.378Z,101710.73
2018-10-09T06:48:01.795Z,101715.72
2018-10-09T06:50:33.350Z,101717.69
2018-10-09T06:53:04.390Z,101714.77
2018-10-09T06:55:36.115Z,101722.12
2018-10-09T06:58:10.012Z,101724.36
2018-10-09T07:00:42.745Z,101719.91
2018-10-09T07:03:16.778Z,101718.40
2018-10-09T07:05:48.241Z,101717.34
2018-10-09T07:08:19.088Z,101708.75
2018-10-09T07:10:50.174Z,101719.75
2018-10-09T07:13:20.726Z,101712.78
2018-10-09T07:15:52.337Z,101715.88
2018-10-09T07:18:21.886Z,101716.73
2018-10-09T07:20:51.385Z,101722.19
2018-10-09T07:23:21.626Z,101714.87
2018-10-09T07:25:52.291Z,101713.68
2018-10-09T07:28:23.618Z,101719.46
2018-10-09T07:31:00.367Z,101726.16
2018-10-09T07:33:31.208Z,101731.34
2018-10-09T07:36:03.669Z,101743.54
2018-10-09T07:38:35.287Z,101753.93
2018-10-09T07:41:07.398Z,101747.05
2018-10-09T07:43:38.435Z,101751.06
2018-10-09T07:46:10.351Z,101755.94
2018-10-09T07:48:42.588Z,101754.11
2018-10-09T07:51:12.898Z,101759.11
2018-10-09T07:53:42.996Z,101758.81
2018-10-09T07:56:14.075Z,101761.66
2018-10-09T07:58:49.697Z,101770.14
2018-10-09T08:01:20.300Z,101770.70
2018-10-09T08:03:51.554Z,101771.74
2018-10-09T08:06:23.155Z,101771.61
2018-10-09T08:08:53.267Z,101774.45
2018-10-09T08:11:25.868Z,101769.83
2018-10-09T08:13:56.777Z,101774.59
2018-10-09T08:16:28.052Z,101779.83
2018-10-09T08:19:00.140Z,101781.02
2018-10-09T08:21:29.928Z,101779.75
2018-10-09T08:24:00.252Z,101777.27
2018-10-09T08:26:32.364Z,101788.42
2018-10-09T08:29:01.898Z,101788.47
2018-10-09T08:31:34.581Z,101793.00
2018-10-09T08:34:05.395Z,101790.69
2018-10-09T08:36:35.207Z,101789.53
2018-10-09T08:39:08.585Z,101793.47
2018-10-09T08:41:39.681Z,101803.61
2018-10-09T08:44:09.974Z,101810.41
2018-10-09T08:46:42.730Z,101803.93
2018-10-09T08:49:16.446Z,101805.19
2018-10-09T08:51:46.732Z,101801.12
2018-10-09T08:54:24.729Z,101803.49
2018-10-09T08:56:56.413Z,101798.59
2018-10-09T08:59:25.926Z,101804.50
2018-10-09T09:01:57.416Z,101794.20
2018-10-09T09:04:31.656Z,101726.33
2018-10-09T09:07:01.241Z,101794.84
2018-10-09T09:09:31.564Z,101796.90
2018-10-09T09:12:06.566Z,101794.95
2018-10-09T09:14:38.027Z,101794.45
2018-10-09T09:17:07.559Z,101790.53
2018-10-09T09:19:37.621Z,101788.61
2018-10-09T09:22:08.735Z,101791.19
2018-10-09T09:24:38.528Z,101796.37
2018-10-09T09:27:09.980Z,101789.07
2018-10-09T09:29:40.370Z,101792.56
2018-10-09T09:32:12.301Z,101799.19
2018-10-09T09:34:44.111Z,101799.53
2018-10-09T09:37:22.364Z,101797.80
2018-10-09T09:39:51.907Z,101796.88
2018-10-09T09:42:23.110Z,101797.20
2018-10-09T09:44:53.369Z,101788.53
2018-10-09T09:47:23.146Z,101789.19
2018-10-09T09:49:53.846Z,101791.93
2018-10-09T09:52:24.575Z,101793.28
2018-10-09T09:54:56.684Z,101791.83
2018-10-09T09:57:32.556Z,101795.92
2018-10-09T10:00:26.191Z,101782.56
2018-10-09T10:03:21.965Z,101780.30
2018-10-09T10:05:54.089Z,101781.16
2018-10-09T10:08:25.665Z,101499.33
2018-10-09T10:11:09.541Z,101776.49
2018-10-09T10:13:42.004Z,101776.42
2018-10-09T10:16:19.500Z,101780.72
2018-10-09T10:18:57.172Z,101779.10
2018-10-09T10:21:29.576Z,101778.86
2018-10-09T10:24:01.778Z,101779.43
2018-10-09T10:26:32.103Z,101660.53
2018-10-09T10:29:15.963Z,101768.39
2018-10-09T10:31:47.593Z,101774.77
2018-10-09T10:34:20.301Z,101777.31
2018-10-09T10:36:52.082Z,101774.50
2018-10-09T10:39:27.681Z,101776.87
2018-10-09T10:42:01.166Z,101778.65
2018-10-09T10:44:38.078Z,101771.87
2018-10-09T10:47:22.917Z,101773.23
2018-10-09T10:49:57.866Z,101765.05
2018-10-09T10:52:28.735Z,101761.58
2018-10-09T10:55:01.554Z,101753.16
2018-10-09T10:57:32.290Z,101752.81
2018-10-09T11:00:14.872Z,101760.94
2018-10-09T11:02:45.330Z,101759.84
2018-10-09T11:05:16.009Z,101759.28
2018-10-09T11:07:48.084Z,101754.23
2018-10-09T11:10:19.204Z,101755.40
2018-10-09T11:12:49.652Z,101754.73
2018-10-09T11:15:20.085Z,101759.66
2018-10-09T11:17:50.622Z,101757.66
2018-10-09T11:20:21.456Z,101753.75
2018-10-09T11:22:53.737Z,101754.23
2018-10-09T11:25:30.215Z,101751.76
2018-10-09T11:28:04.635Z,101748.63
2018-10-09T11:30:36.957Z,101599.69
2018-10-09T11:33:07.959Z,101737.95
2018-10-09T11:35:37.890Z,101736.72
2018-10-09T11:38:25.080Z,101742.62
2018-10-09T11:40:59.774Z,101740.78
2018-10-09T11:43:31.671Z,101732.98
2018-10-09T11:46:05.453Z,101735.75
2018-10-09T11:48:41.476Z,101728.30
2018-10-09T11:51:15.970Z,101718.62
2018-10-09T11:53:47.878Z,101720.67
2018-10-09T11:56:21.636Z,101721.02
2018-10-09T11:58:52.057Z,101717.67
2018-10-09T12:01:26.157Z,101710.72
2018-10-09T12:04:00.403Z,101703.48
2018-10-09T12:06:32.227Z,101700.55
2018-10-09T12:09:03.822Z,101692.61
2018-10-09T12:11:34.770Z,101694.27
2018-10-09T12:14:05.297Z,101693.64
2018-10-09T12:16:35.676Z,101690.66
2018-10-09T12:19:05.240Z,101683.03
2018-10-09T12:21:37.504Z,101679.38
2018-10-09T12:24:09.962Z,101682.81
2018-10-09T12:26:42.368Z,101680.77
2018-10-09T12:29:12.278Z,101676.97
2018-10-09T12:31:42.671Z,101668.80
2018-10-09T12:34:12.787Z,101676.44
2018-10-09T12:36:45.105Z,101668.83
2018-10-09T12:39:29.616Z,101670.95
2018-10-09T12:42:01.515Z,101666.17
2018-10-09T12:44:37.497Z,101667.56
2018-10-09T12:47:14.599Z,101665.47
2018-10-09T12:49:45.240Z,101659.39
2018-10-09T12:52:16.816Z,101654.36
2018-10-09T12:57:32.135Z,101660.87
2018-10-09T13:00:09.033Z,101661.50
2018-10-09T13:02:39.755Z,101660.95
2018-10-09T13:05:11.383Z,101656.30
2018-10-09T13:07:41.540Z,101649.46
2018-10-09T13:10:18.520Z,101642.81
2018-10-09T13:12:48.356Z,101650.37
2018-10-09T13:15:30.052Z,101644.50
2018-10-09T13:18:04.714Z,101647.61
2018-10-09T13:20:37.090Z,101645.40
2018-10-09T13:23:15.148Z,101649.08
2018-10-09T13:25:48.044Z,101646.49
2018-10-09T13:28:18.955Z,101643.07
2018-10-09T13:30:49.533Z,101641.02
2018-10-09T13:33:19.712Z,101640.02
2018-10-09T13:38:39.638Z,101638.55
2018-10-09T13:41:15.420Z,101634.96
2018-10-09T13:43:51.798Z,101636.28
2018-10-09T13:46:24.844Z,101639.95
2018-10-09T13:48:57.733Z,101635.86
2018-10-09T13:51:28.795Z,101628.03
2018-10-09T13:54:02.456Z,101636.16
2018-10-09T13:56:34.312Z,101636.16
2018-10-09T13:59:04.184Z,101624.63
2018-10-09T14:01:36.257Z,101627.98
2018-10-09T14:04:06.278Z,101623.16
2018-10-09T14:06:38.000Z,101629.09
2018-10-09T14:09:10.034Z,101624.86
2018-10-09T14:11:40.824Z,101628.25
2018-10-09T14:14:13.053Z,101621.23
2018-10-09T14:16:44.770Z,101620.16
2018-10-09T14:19:14.330Z,101619.02
2018-10-09T14:21:45.106Z,101621.92
2018-10-09T14:24:15.521Z,101617.73
2018-10-09T14:26:46.862Z,101613.16
2018-10-09T14:29:23.802Z,101605.49
2018-10-09T14:31:54.811Z,101609.05
2018-10-09T14:34:29.469Z,101606.33
2018-10-09T14:36:59.642Z,101602.70
2018-10-09T14:39:29.971Z,101604.40
2018-10-09T14:42:00.151Z,101600.67
2018-10-09T14:44:32.705Z,101601.53
2018-10-09T14:47:05.622Z,101564.11
2018-10-09T14:49:36.133Z,101594.73
2018-10-09T14:52:09.686Z,101594.06
2018-10-09T14:54:42.862Z,101595.97
2018-10-09T14:57:15.435Z,101594.30
2018-10-09T14:59:50.041Z,101592.48
2018-10-09T15:02:20.567Z,101591.22
2018-10-09T15:04:52.059Z,101593.78
2018-10-09T15:07:21.996Z,101597.94
2018-10-09T15:09:55.791Z,101594.95
2018-10-09T15:12:31.093Z,101596.09
2018-10-09T15:15:15.013Z,101606.75
2018-10-09T15:17:45.354Z,101603.77
2018-10-09T15:20:27.450Z,101607.23
2018-10-09T15:23:00.342Z,101601.92
2018-10-09T15:25:35.856Z,101601.95
2018-10-09T15:28:07.632Z,101604.58
2018-10-09T15:30:42.558Z,101606.99
2018-10-09T15:33:14.483Z,101600.19
2018-10-09T15:35:44.638Z,101599.39
2018-10-09T15:38:15.322Z,101594.79
2018-10-09T15:40:53.453Z,101597.64
2018-10-09T15:43:36.347Z,101599.58
2018-10-09T15:46:13.038Z,101596.41
2018-10-09T15:49:00.148Z,101598.00
2018-10-09T15:51:36.677Z,101595.70
2018-10-09T15:54:11.354Z,101325.09
2018-10-09T15:56:42.739Z,101592.91
2018-10-09T15:59:19.843Z,101552.75
2018-10-09T16:04:44.534Z,101587.12
2018-10-09T16:07:18.799Z,101591.14
2018-10-09T16:09:59.208Z,101583.41
2018-10-09T16:12:38.249Z,101585.09
2018-10-09T16:15:19.862Z,101588.84
2018-10-09T16:17:54.011Z,101586.47
2018-10-09T16:20:35.443Z,101588.62
2018-10-09T16:23:08.237Z,101588.97
2018-10-09T16:25:54.569Z,101594.69
2018-10-09T16:28:24.688Z,101591.27
2018-10-09T16:30:59.679Z,101592.95
2018-10-09T16:33:29.502Z,101596.31
2018-10-09T16:36:05.656Z,101517.95
2018-10-09T16:38:36.429Z,101594.38
2018-10-09T16:41:08.200Z,101594.76
2018-10-09T16:43:41.235Z,101588.20
2018-10-09T16:46:14.205Z,101597.52
2018-10-09T16:51:21.800Z,101602.30
2018-10-09T16:54:04.031Z,101607.17
2018-10-09T16:56:34.913Z,101603.35
2018-10-09T16:59:05.923Z,101604.44
2018-10-09T17:01:37.255Z,101606.37
2018-10-09T17:04:10.666Z,101609.78
2018-10-09T17:09:30.236Z,101611.45
2018-10-09T17:12:00.783Z,101615.44
2018-10-09T17:14:32.517Z,101615.86
2018-10-09T17:17:07.452Z,101613.42
2018-10-09T17:19:39.202Z,101612.87
2018-10-09T17:22:19.245Z,101616.91
2018-10-09T17:25:04.601Z,101611.89
2018-10-09T17:27:45.963Z,101607.55
2018-10-09T17:30:19.138Z,101616.13
2018-10-09T17:32:51.659Z,101616.41
2018-10-09T17:35:25.622Z,101614.04
2018-10-09T17:37:56.525Z,101619.83
2018-10-09T17:40:30.443Z,101623.80
2018-10-09T17:43:02.111Z,101626.02
2018-10-09T17:45:34.434Z,101626.03
2018-10-09T17:48:05.487Z,101627.55
2018-10-09T17:50:39.325Z,101624.58
2018-10-09T17:53:10.088Z,101628.14
2018-10-09T17:55:40.487Z,101620.19
2018-10-09T17:58:10.271Z,101621.69
2018-10-09T18:00:44.982Z,101629.43
2018-10-09T18:03:28.022Z,101624.87
2018-10-09T18:06:01.398Z,101621.75
2018-10-09T18:08:33.694Z,101629.07
2018-10-09T18:11:05.942Z,101624.98
2018-10-09T18:13:36.659Z,101629.75
2018-10-09T18:16:11.069Z,101483.37
2018-10-09T18:18:42.340Z,101632.19
2018-10-09T18:21:13.499Z,101627.31
2018-10-09T18:23:45.964Z,101631.73
2018-10-09T18:28:51.230Z,101639.73
2018-10-09T18:31:34.133Z,101638.86
2018-10-09T18:34:06.671Z,101641.25
2018-10-09T18:36:37.508Z,101580.34
2018-10-09T18:39:14.258Z,101637.53
2018-10-09T18:41:47.398Z,101638.05
2018-10-09T18:44:18.006Z,101635.17
2018-10-09T18:46:49.269Z,101640.42
2018-10-09T18:49:21.047Z,101636.55
2018-10-09T18:51:51.647Z,101637.90
2018-10-09T18:54:23.803Z,101639.80
2018-10-09T18:56:57.309Z,101633.72
2018-10-09T18:59:30.091Z,101626.29
2018-10-09T19:02:05.560Z,101634.24
2018-10-09T19:04:40.561Z,101633.56
2018-10-09T19:07:15.356Z,101630.88
2018-10-09T19:09:45.769Z,101632.41
2018-10-09T19:12:18.862Z,101643.70
2018-10-09T19:14:49.931Z,101601.01
2018-10-09T19:17:25.124Z,101641.00
2018-10-09T19:19:55.573Z,101644.00
2018-10-09T19:22:26.181Z,101639.27
2018-10-09T19:24:55.725Z,101645.34
2018-10-09T19:27:37.209Z,101605.87
2018-10-09T19:30:22.699Z,101645.00
2018-10-09T19:32:54.847Z,101643.31
2018-10-09T19:35:28.267Z,101642.97
2018-10-09T19:38:01.409Z,101643.47
2018-10-09T19:40:34.296Z,101650.22
2018-10-09T19:43:11.234Z,101649.53
2018-10-09T19:45:47.366Z,101647.67
2018-10-09T19:48:18.304Z,101644.78
2018-10-09T19:50:50.297Z,101647.79
2018-10-09T19:53:24.606Z,101650.48
2018-10-09T19:55:58.723Z,101650.98
2018-10-09T19:58:34.839Z,101651.32
2018-10-09T20:01:18.571Z,101648.77
2018-10-09T20:03:50.348Z,101650.63
2018-10-09T20:06:22.480Z,101648.59
2018-10-09T20:09:00.292Z,101651.97
2018-10-09T20:11:34.064Z,101653.13
2018-10-09T20:14:05.493Z,101646.03
2018-10-09T20:16:38.639Z,101643.83
2018-10-09T20:19:19.540Z,101650.22
2018-10-09T20:21:54.210Z,101655.27
2018-10-09T20:24:25.879Z,101653.91
2018-10-09T20:26:58.386Z,101655.94
2018-10-09T20:29:37.488Z,101656.92
2018-10-09T20:32:11.158Z,101655.05
2018-10-09T20:34:43.229Z,101661.47
2018-10-09T20:37:13.739Z,101655.53
2018-10-09T20:39:44.389Z,101653.33
2018-10-09T20:42:15.684Z,101648.91
2018-10-09T20:44:46.731Z,101652.44
2018-10-09T20:47:50.250Z,101651.08
2018-10-09T20:50:24.642Z,101648.67
2018-10-09T20:52:57.121Z,101642.77
2018-10-09T20:55:29.172Z,101650.14
2018-10-09T20:58:00.483Z,101649.78
2018-10-09T21:00:31.577Z,101652.27
2018-10-09T21:03:01.365Z,101646.19
2018-10-09T21:05:32.683Z,101645.14
2018-10-09T21:08:08.283Z,101650.36
2018-10-09T21:10:45.395Z,101645.12
2018-10-09T21:13:20.570Z,101651.81
2018-10-09T21:15:53.721Z,101652.73
2018-10-09T21:18:27.530Z,101652.91
2018-10-09T21:20:57.829Z,101649.40
2018-10-09T21:23:27.715Z,101655.80
2018-10-09T21:25:57.915Z,101645.63
2018-10-09T21:28:34.333Z,101653.04
2018-10-09T21:31:05.904Z,101648.27
2018-10-09T21:33:36.784Z,101654.63
2018-10-09T21:36:06.767Z,101659.83
2018-10-09T21:41:30.568Z,101657.96
2018-10-09T21:44:00.728Z,101655.39
2018-10-09T21:46:32.391Z,101656.00
2018-10-09T21:49:02.505Z,101649.36
2018-10-09T21:51:33.166Z,101645.91
2018-10-09T21:54:03.169Z,101648.04
2018-10-09T21:56:33.382Z,101645.45
2018-10-09T21:59:03.706Z,101641.53
2018-10-09T22:01:33.845Z,101645.19
2018-10-09T22:04:06.339Z,101647.66
2018-10-09T22:06:39.301Z,101644.27
2018-10-09T22:09:09.616Z,101648.58
2018-10-09T22:11:39.295Z,101647.88
2018-10-09T22:14:09.836Z,101648.65
2018-10-09T22:16:41.121Z,101647.45
2018-10-09T22:19:13.306Z,101644.62
2018-10-09T22:21:45.072Z,101641.08
2018-10-09T22:24:15.303Z,101638.42
2018-10-09T22:26:45.543Z,101639.10
2018-10-09T22:29:15.494Z,101637.94
2018-10-09T22:31:48.713Z,101638.08
2018-10-09T22:34:18.514Z,101633.86
2018-10-09T22:36:49.430Z,101634.19
2018-10-09T22:39:19.404Z,101635.45
2018-10-09T22:44:27.932Z,101628.30
2018-10-09T22:46:58.342Z,101626.70
2018-10-09T22:49:28.882Z,101623.17
2018-10-09T22:52:00.213Z,101626.36
2018-10-09T22:54:29.973Z,101624.97
2018-10-09T22:56:59.631Z,101627.08
2018-10-09T22:59:33.952Z,101630.81
2018-10-09T23:04:51.439Z,101627.47
2018-10-09T23:07:22.380Z,101626.79
2018-10-09T23:09:53.266Z,101631.09
2018-10-09T23:14:55.165Z,101625.32
2018-10-09T23:17:25.173Z,101626.66
2018-10-09T23:19:55.135Z,101623.08
2018-10-09T23:22:25.521Z,101628.05
2018-10-09T23:24:56.449Z,101627.50
2018-10-09T23:27:26.470Z,101631.58
2018-10-09T23:29:56.360Z,101627.33
2018-10-09T23:32:26.110Z,101568.87
2018-10-09T23:34:56.249Z,101625.45
2018-10-09T23:37:26.357Z,101633.50
2018-10-09T23:39:56.205Z,101635.20
2018-10-09T23:42:26.760Z,101628.48
2018-10-09T23:44:59.238Z,101625.27
2018-10-09T23:47:29.137Z,101626.74
2018-10-09T23:49:59.710Z,101622.72
2018-10-09T23:52:29.318Z,101625.05
2018-10-09T23:54:58.939Z,101621.86
2018-10-09T23:57:28.935Z,101618.47
2018-10-09T23:59:58.499Z,101616.98
